createdAt,value
2022-10-17T00:06:59.775Z,80.30
2022-10-17T00:21:45.630Z,79.30
2022-10-17T00:24:41.524Z,78.55
2022-10-17T00:33:47.098Z,82.43
2022-10-17T00:36:28.734Z,83.55
2022-10-17T00:42:01.103Z,75.35
2022-10-17T00:44:32.890Z,81.00
2022-10-17T00:47:15.367Z,80.22
2022-10-17T00:49:44.248Z,83.63
2022-10-17T00:52:27.233Z,76.53
2022-10-17T00:55:32.483Z,81.40
2022-10-17T00:58:06.902Z,79.30
2022-10-17T01:00:44.174Z,81.50
2022-10-17T01:03:15.518Z,78.75
2022-10-17T01:05:46.805Z,78.00
2022-10-17T01:08:18.234Z,75.85
2022-10-17T01:11:28.889Z,83.90
2022-10-17T01:14:17.320Z,76.60
2022-10-17T01:17:26.137Z,78.85
2022-10-17T01:24:14.296Z,80.28
2022-10-17T01:27:40.480Z,79.30
2022-10-17T01:30:49.602Z,73.82
2022-10-17T01:36:56.255Z,73.85
2022-10-17T01:40:07.154Z,74.28
2022-10-17T01:43:08.326Z,74.53
2022-10-17T01:52:33.656Z,74.85
2022-10-17T01:56:28.417Z,71.47
2022-10-17T01:59:15.709Z,76.28
2022-10-17T02:02:12.629Z,74.03
2022-10-17T02:11:00.748Z,74.22
2022-10-17T02:17:14.808Z,76.38
2022-10-17T02:20:25.724Z,74.85
2022-10-17T02:23:59.370Z,73.00
2022-10-17T02:27:07.790Z,71.22
2022-10-17T02:33:15.383Z,70.93
2022-10-17T02:36:02.094Z,70.47
2022-10-17T02:38:36.757Z,71.95
2022-10-17T02:45:05.521Z,70.28
2022-10-17T02:48:08.397Z,72.82
2022-10-17T02:51:31.133Z,70.68
2022-10-17T03:04:23.448Z,76.30
2022-10-17T03:06:59.098Z,75.00
2022-10-17T03:09:32.596Z,73.63
2022-10-17T03:12:56.467Z,72.30
2022-10-17T03:15:30.447Z,67.72
2022-10-17T03:29:44.477Z,72.28
2022-10-17T04:48:19.607Z,69.00
2022-10-17T04:51:04.219Z,74.13
2022-10-17T04:53:46.417Z,70.82
2022-10-17T05:19:00.772Z,69.45
2022-10-17T05:34:51.229Z,70.32
2022-10-17T05:38:02.031Z,72.70
2022-10-17T05:41:03.379Z,71.35
2022-10-17T05:43:44.196Z,72.93
2022-10-17T05:56:56.645Z,71.82
2022-10-17T06:10:10.910Z,69.22
2022-10-17T06:16:00.521Z,69.15
2022-10-17T06:18:29.525Z,68.63
2022-10-17T06:21:04.241Z,78.65
2022-10-17T06:23:31.519Z,81.10
2022-10-17T06:26:31.041Z,83.93
2022-10-17T06:28:59.451Z,95.30
2022-10-17T06:31:34.849Z,91.15
2022-10-17T06:34:07.472Z,87.47
2022-10-17T06:39:43.324Z,85.22
2022-10-17T06:42:22.412Z,89.40
2022-10-17T06:45:09.970Z,90.88
2022-10-17T06:47:56.807Z,94.45
2022-10-17T07:03:18.907Z,86.55
2022-10-17T07:05:56.787Z,81.97
2022-10-17T07:08:25.790Z,87.13
2022-10-17T07:10:57.012Z,82.72
2022-10-17T07:16:52.674Z,84.63
2022-10-17T07:19:36.212Z,83.93
2022-10-17T07:22:08.363Z,83.80
2022-10-17T07:25:11.875Z,88.78
2022-10-17T07:28:00.057Z,87.65
2022-10-17T07:31:16.125Z,86.35
2022-10-17T07:34:19.545Z,87.75
2022-10-17T07:36:59.343Z,86.00
2022-10-17T07:39:26.609Z,86.93
2022-10-17T07:41:55.280Z,87.18
2022-10-17T07:44:29.003Z,79.53
2022-10-17T07:46:56.184Z,83.88
2022-10-17T07:49:48.647Z,82.40
2022-10-17T07:52:17.380Z,80.50
2022-10-17T07:55:10.117Z,77.65
2022-10-17T07:57:37.433Z,77.03
2022-10-17T08:00:08.225Z,84.70
2022-10-17T08:02:40.000Z,83.43
2022-10-17T08:05:10.123Z,90.43
2022-10-17T08:07:37.370Z,81.82
2022-10-17T08:10:05.102Z,81.35
2022-10-17T08:12:34.461Z,86.95
2022-10-17T08:16:01.929Z,85.80
2022-10-17T08:18:29.539Z,88.20
2022-10-17T08:21:00.535Z,84.55
2022-10-17T08:26:00.135Z,85.80
2022-10-17T08:31:23.741Z,83.65
2022-10-17T08:33:51.059Z,80.57
2022-10-17T08:36:51.822Z,80.35
2022-10-17T08:39:19.169Z,77.10
2022-10-17T08:42:24.453Z,81.10
2022-10-17T08:45:27.884Z,78.55
2022-10-17T08:48:37.740Z,83.43
2022-10-17T08:51:38.420Z,81.28
2022-10-17T08:54:22.780Z,80.85
2022-10-17T08:56:55.486Z,83.13
2022-10-17T08:59:31.971Z,86.72
2022-10-17T09:02:22.681Z,83.47
2022-10-17T09:05:13.582Z,79.40
2022-10-17T09:08:12.299Z,82.75
2022-10-17T09:11:26.556Z,78.70
2022-10-17T09:14:18.244Z,83.20
2022-10-17T09:17:54.697Z,82.25
2022-10-17T09:20:57.405Z,81.95
2022-10-17T09:23:36.142Z,79.70
2022-10-17T09:56:15.646Z,82.25
2022-10-17T10:00:27.272Z,84.20
2022-10-17T12:49:35.802Z,61.33
2022-10-17T15:49:37.924Z,50.35
2022-10-17T15:52:05.766Z,51.85
2022-10-17T15:54:32.638Z,53.85
2022-10-17T15:56:59.680Z,54.97
2022-10-17T15:59:32.620Z,54.88
2022-10-17T16:01:59.519Z,53.92
2022-10-17T16:04:27.710Z,53.42
2022-10-17T16:06:54.633Z,59.65
2022-10-17T16:09:21.631Z,52.00
2022-10-17T16:11:48.642Z,51.17
2022-10-17T16:14:16.939Z,49.65
2022-10-17T16:16:44.571Z,50.08
2022-10-17T16:19:11.907Z,46.67
2022-10-17T16:21:40.977Z,52.20
2022-10-17T16:24:11.329Z,49.55
2022-10-17T16:26:39.556Z,53.08
2022-10-17T16:29:06.703Z,53.90
2022-10-17T16:31:35.993Z,55.08
2022-10-17T16:34:04.472Z,54.15
2022-10-17T16:36:31.322Z,56.33
2022-10-17T16:38:58.616Z,53.30
2022-10-17T16:41:34.689Z,51.75
2022-10-17T16:44:11.396Z,53.97
2022-10-17T16:46:38.275Z,58.28
2022-10-17T16:49:06.377Z,56.17
2022-10-17T16:51:35.960Z,58.13
2022-10-17T16:54:04.757Z,53.70
2022-10-17T16:56:33.067Z,57.80
2022-10-17T16:59:01.096Z,57.72
2022-10-17T17:01:31.509Z,60.67
2022-10-17T17:03:58.791Z,67.80
2022-10-17T17:06:28.301Z,58.78
2022-10-17T17:08:55.968Z,63.22
2022-10-17T17:11:25.665Z,59.10
2022-10-17T17:13:54.799Z,55.85
2022-10-17T17:16:24.083Z,58.60
2022-10-17T17:18:56.511Z,68.68
2022-10-17T17:21:24.066Z,63.65
2022-10-17T17:23:51.861Z,65.10
2022-10-17T17:26:21.248Z,69.25
2022-10-17T17:28:49.262Z,62.85
2022-10-17T17:31:24.419Z,64.28
2022-10-17T17:43:13.968Z,69.57
2022-10-17T17:46:09.687Z,72.50
2022-10-17T17:48:44.939Z,70.85
2022-10-17T17:57:06.872Z,72.95
2022-10-17T17:59:41.539Z,72.53
2022-10-17T18:02:09.795Z,66.68
2022-10-17T18:11:44.508Z,67.10
2022-10-17T18:14:24.127Z,78.47
2022-10-17T18:16:54.684Z,73.10
2022-10-17T18:27:02.488Z,66.82
2022-10-17T18:29:33.429Z,65.53
2022-10-17T18:32:00.650Z,67.22
2022-10-17T18:34:28.135Z,64.35
2022-10-17T18:36:55.863Z,65.28
2022-10-17T18:39:23.181Z,58.88
2022-10-17T18:41:55.372Z,59.78
2022-10-17T18:44:22.590Z,59.90
2022-10-17T18:46:50.130Z,59.85
2022-10-17T18:49:19.001Z,56.33
2022-10-17T18:51:46.463Z,50.70
2022-10-17T18:54:17.140Z,51.38
2022-10-17T18:56:45.082Z,49.22
2022-10-17T18:59:12.144Z,46.97
2022-10-17T19:01:40.500Z,46.65
2022-10-17T19:04:07.754Z,41.28
2022-10-17T19:06:37.832Z,42.03
2022-10-17T19:09:07.443Z,41.40
2022-10-17T19:11:36.277Z,36.83
2022-10-17T19:14:05.436Z,37.45
2022-10-17T19:16:36.480Z,33.65
2022-10-17T19:19:11.418Z,34.15
2022-10-17T19:21:39.180Z,32.30
2022-10-17T19:24:10.878Z,32.13
2022-10-17T19:29:05.900Z,29.77
2022-10-17T19:31:34.779Z,29.40
2022-10-17T19:34:02.349Z,26.13
2022-10-17T19:36:33.513Z,29.38
2022-10-17T19:39:07.232Z,26.10
2022-10-17T19:41:36.190Z,23.55
2022-10-17T19:44:03.242Z,24.95
2022-10-17T19:46:32.146Z,22.65
2022-10-17T19:48:59.172Z,23.83
2022-10-17T19:51:27.702Z,22.52
2022-10-17T19:53:56.935Z,24.27
2022-10-17T19:56:25.504Z,23.77
2022-10-17T19:58:54.258Z,22.67
2022-10-17T20:01:27.202Z,24.48
2022-10-17T20:03:55.082Z,24.98
2022-10-17T20:06:22.946Z,23.30
2022-10-17T20:08:50.478Z,26.75
2022-10-17T20:11:26.225Z,23.00
2022-10-17T20:13:55.029Z,22.75
2022-10-17T20:16:25.275Z,22.58
2022-10-17T20:20:08.775Z,19.65
2022-10-17T20:22:38.806Z,20.63
2022-10-17T20:25:06.353Z,21.35
2022-10-17T20:27:33.962Z,20.98
2022-10-17T20:30:02.544Z,22.90
2022-10-17T20:32:39.617Z,21.73
2022-10-17T20:35:09.409Z,21.73
2022-10-17T20:37:41.565Z,20.90
2022-10-17T20:40:33.764Z,21.80
2022-10-17T20:42:57.497Z,21.40
2022-10-17T20:45:37.566Z,21.23
2022-10-17T20:48:16.056Z,24.98
2022-10-17T20:50:43.976Z,22.27
2022-10-17T20:56:16.848Z,23.85
2022-10-17T20:58:44.197Z,23.95
2022-10-17T21:01:13.046Z,26.83
2022-10-17T21:03:43.880Z,21.70
2022-10-17T21:06:14.252Z,25.33
2022-10-17T21:08:41.483Z,24.92
2022-10-17T21:11:14.155Z,22.75
2022-10-17T21:13:41.704Z,23.13
2022-10-17T21:16:14.844Z,21.83
2022-10-17T21:18:42.779Z,23.27
2022-10-17T21:21:22.082Z,21.98
2022-10-17T21:23:51.238Z,24.30
2022-10-17T21:26:19.087Z,25.08
2022-10-17T21:28:48.107Z,27.58
2022-10-17T21:31:27.655Z,33.58
2022-10-17T21:33:56.785Z,42.08
2022-10-17T21:36:26.206Z,48.85
2022-10-17T21:38:55.591Z,52.08
2022-10-17T21:41:28.136Z,46.30
2022-10-17T21:44:00.194Z,48.25
2022-10-17T21:46:27.895Z,42.25
2022-10-17T21:49:01.360Z,32.75
2022-10-17T21:51:29.089Z,27.83
2022-10-17T21:53:57.825Z,25.42
2022-10-17T21:56:30.705Z,26.00
2022-10-17T21:58:58.861Z,24.10
2022-10-17T22:01:32.685Z,27.30
2022-10-17T22:04:02.791Z,25.52
2022-10-17T22:06:41.122Z,28.55
2022-10-17T22:09:21.103Z,28.58
2022-10-17T22:11:50.128Z,27.05
2022-10-17T22:14:19.820Z,32.70
2022-10-17T22:16:48.119Z,27.05
2022-10-17T22:19:19.189Z,31.95
2022-10-17T22:21:47.149Z,31.15
2022-10-17T22:24:16.006Z,32.05
2022-10-17T22:26:44.665Z,30.73
2022-10-17T22:29:12.482Z,26.20
2022-10-17T22:31:42.016Z,26.65
2022-10-17T22:34:11.271Z,26.60
2022-10-17T22:36:38.542Z,26.92
2022-10-17T22:39:08.466Z,25.38
2022-10-17T22:41:36.282Z,27.13
2022-10-17T22:44:04.803Z,25.42
2022-10-17T22:46:51.366Z,26.77
2022-10-17T22:49:21.923Z,26.38
2022-10-17T22:51:49.404Z,31.65
2022-10-17T22:54:17.759Z,25.75
2022-10-17T22:56:45.467Z,31.15
2022-10-17T22:59:12.966Z,28.25
2022-10-17T23:01:40.580Z,33.20
2022-10-17T23:04:11.386Z,35.65
2022-10-17T23:06:39.090Z,40.90
2022-10-17T23:09:09.538Z,38.97
2022-10-17T23:11:40.577Z,34.25
2022-10-17T23:14:08.080Z,27.48
2022-10-17T23:16:35.282Z,28.73
2022-10-17T23:19:06.210Z,36.97
2022-10-17T23:21:33.823Z,38.08
2022-10-17T23:24:01.274Z,41.83
2022-10-17T23:26:28.606Z,40.88
2022-10-17T23:28:59.116Z,47.78
2022-10-17T23:31:27.492Z,44.15
2022-10-17T23:33:54.776Z,44.65
2022-10-17T23:36:22.364Z,43.65
2022-10-17T23:38:55.069Z,37.38
2022-10-17T23:41:26.079Z,34.28
2022-10-17T23:43:53.304Z,36.08
2022-10-17T23:46:20.714Z,42.25
2022-10-17T23:49:05.792Z,32.15
2022-10-17T23:51:36.235Z,34.53
2022-10-17T23:54:05.596Z,34.90
2022-10-17T23:56:32.823Z,36.80
2022-10-17T23:59:00.165Z,35.05
